sensor_id;sensor_type;location;lat;lon;timestamp;pressure;altitude;pressure_sealevel;temperature;humidity
38054;BME280;23859;50.672;7.164;2023-03-31T00:00:13;95612.34;;;12.38;100.00
38054;BME280;23859;50.672;7.164;2023-03-31T00:02:39;95615.03;;;12.33;100.00
38054;BME280;23859;50.672;7.164;2023-03-31T00:05:09;95605.16;;;12.43;99.28
38054;BME280;23859;50.672;7.164;2023-03-31T00:07:36;95600.06;;;12.47;98.84
38054;BME280;23859;50.672;7.164;2023-03-31T00:10:04;95596.06;;;12.44;98.57
38054;BME280;23859;50.672;7.164;2023-03-31T00:12:30;95578.53;;;12.33;100.00
38054;BME280;23859;50.672;7.164;2023-03-31T00:14:56;95569.53;;;12.24;100.00
38054;BME280;23859;50.672;7.164;2023-03-31T00:17:23;95569.53;;;12.24;100.00
38054;BME280;23859;50.672;7.164;2023-03-31T00:19:49;95564.22;;;12.24;100.00
38054;BME280;23859;50.672;7.164;2023-03-31T00:22:15;95557.28;;;12.23;100.00
38054;BME280;23859;50.672;7.164;2023-03-31T00:24:47;95551.97;;;12.23;100.00
38054;BME280;23859;50.672;7.164;2023-03-31T00:27:13;95547.22;;;12.20;100.00
38054;BME280;23859;50.672;7.164;2023-03-31T00:29:39;95541.88;;;12.20;100.00
38054;BME280;23859;50.672;7.164;2023-03-31T00:32:07;95539.47;;;12.29;99.92
38054;BME280;23859;50.672;7.164;2023-03-31T00:34:33;95430.63;;;11.69;99.07
38054;BME280;23859;50.672;7.164;2023-03-31T00:36:59;95526.38;;;12.37;98.70
38054;BME280;23859;50.672;7.164;2023-03-31T00:39:28;95517.34;;;12.38;98.75
38054;BME280;23859;50.672;7.164;2023-03-31T00:42:02;95522.06;;;12.46;98.69
38054;BME280;23859;50.672;7.164;2023-03-31T00:44:29;95510.84;;;12.59;97.29
38054;BME280;23859;50.672;7.164;2023-03-31T00:47:17;95524.09;;;12.69;96.67
38054;BME280;23859;50.672;7.164;2023-03-31T00:49:56;95508.66;;;12.66;96.64
38054;BME280;23859;50.672;7.164;2023-03-31T00:52:31;95505.97;;;12.66;97.01
38054;BME280;23859;50.672;7.164;2023-03-31T00:55:06;95496.38;;;12.75;96.23
38054;BME280;23859;50.672;7.164;2023-03-31T00:57:35;95499.06;;;12.70;96.72
38054;BME280;23859;50.672;7.164;2023-03-31T01:00:07;95490.19;;;12.79;96.23
38054;BME280;23859;50.672;7.164;2023-03-31T01:02:45;95474.56;;;12.68;97.07
38054;BME280;23859;50.672;7.164;2023-03-31T01:05:25;95474.88;;;12.62;97.46
38054;BME280;23859;50.672;7.164;2023-03-31T01:07:53;95467.63;;;12.67;97.22
38054;BME280;23859;50.672;7.164;2023-03-31T01:10:21;95465.50;;;12.69;97.23
38054;BME280;23859;50.672;7.164;2023-03-31T01:12:50;95464.69;;;12.68;96.88
38054;BME280;23859;50.672;7.164;2023-03-31T01:15:17;95448.25;;;12.62;97.39
38054;BME280;23859;50.672;7.164;2023-03-31T01:17:44;95454.84;;;12.69;97.30
38054;BME280;23859;50.672;7.164;2023-03-31T01:20:24;95455.13;;;12.67;97.68
38054;BME280;23859;50.672;7.164;2023-03-31T01:28:44;95445.47;;;12.76;96.47
38054;BME280;23859;50.672;7.164;2023-03-31T01:43:04;95325.91;;;12.42;93.48
38054;BME280;23859;50.672;7.164;2023-03-31T01:48:20;95420.28;;;12.97;94.06
38054;BME280;23859;50.672;7.164;2023-03-31T01:51:04;95414.78;;;13.17;93.20
38054;BME280;23859;50.672;7.164;2023-03-31T01:53:49;95405.47;;;13.15;92.63
38054;BME280;23859;50.672;7.164;2023-03-31T01:58:59;95398.00;;;13.17;92.15
38054;BME280;23859;50.672;7.164;2023-03-31T02:01:36;95393.78;;;13.11;92.77
38054;BME280;23859;50.672;7.164;2023-03-31T02:04:15;95388.94;;;13.18;92.77
38054;BME280;23859;50.672;7.164;2023-03-31T02:06:46;95383.25;;;13.01;93.35
38054;BME280;23859;50.672;7.164;2023-03-31T02:09:22;95368.91;;;12.97;92.93
38054;BME280;23859;50.672;7.164;2023-03-31T02:11:50;95370.50;;;12.93;93.39
38054;BME280;23859;50.672;7.164;2023-03-31T02:14:19;95350.31;;;12.87;94.70
38054;BME280;23859;50.672;7.164;2023-03-31T02:16:49;95351.13;;;12.82;95.22
38054;BME280;23859;50.672;7.164;2023-03-31T02:19:18;95341.28;;;12.83;94.54
38054;BME280;23859;50.672;7.164;2023-03-31T02:21:48;95333.38;;;12.73;95.68
38054;BME280;23859;50.672;7.164;2023-03-31T02:24:16;95328.56;;;12.75;95.40
38054;BME280;23859;50.672;7.164;2023-03-31T02:26:51;95312.31;;;12.76;95.36
38054;BME280;23859;50.672;7.164;2023-03-31T02:29:18;95301.41;;;12.73;95.22
38054;BME280;23859;50.672;7.164;2023-03-31T02:32:08;95284.97;;;12.66;95.64
38054;BME280;23859;50.672;7.164;2023-03-31T02:34:36;95282.03;;;12.67;94.89
38054;BME280;23859;50.672;7.164;2023-03-31T02:37:02;95272.41;;;12.71;94.99
38054;BME280;23859;50.672;7.164;2023-03-31T02:39:33;95275.63;;;12.68;95.16
38054;BME280;23859;50.672;7.164;2023-03-31T02:42:00;95241.13;;;12.82;93.86
38054;BME280;23859;50.672;7.164;2023-03-31T02:44:33;95248.03;;;12.83;93.87
38054;BME280;23859;50.672;7.164;2023-03-31T02:46:59;95262.09;;;12.93;93.64
38054;BME280;23859;50.672;7.164;2023-03-31T02:49:25;95244.38;;;12.79;93.67
38054;BME280;23859;50.672;7.164;2023-03-31T02:55:26;95207.13;;;12.74;94.62
38054;BME280;23859;50.672;7.164;2023-03-31T02:58:17;95197.66;;;12.63;94.89
38054;BME280;23859;50.672;7.164;2023-03-31T03:04:09;95173.72;;;12.63;94.95
38054;BME280;23859;50.672;7.164;2023-03-31T03:09:26;95169.28;;;12.77;93.60
38054;BME280;23859;50.672;7.164;2023-03-31T03:12:10;95166.00;;;12.85;92.42
38054;BME280;23859;50.672;7.164;2023-03-31T03:14:54;95147.47;;;12.75;92.90
38054;BME280;23859;50.672;7.164;2023-03-31T03:17:38;95160.78;;;12.75;92.25
38054;BME280;23859;50.672;7.164;2023-03-31T03:20:07;95175.72;;;12.71;92.37
38054;BME280;23859;50.672;7.164;2023-03-31T03:22:35;95185.84;;;12.74;92.39
38054;BME280;23859;50.672;7.164;2023-03-31T03:25:03;95187.53;;;12.65;92.73
38054;BME280;23859;50.672;7.164;2023-03-31T03:27:29;95162.47;;;12.66;91.66
38054;BME280;23859;50.672;7.164;2023-03-31T03:29:55;95135.78;;;12.71;91.73
38054;BME280;23859;50.672;7.164;2023-03-31T03:32:21;95141.69;;;12.68;91.64
38054;BME280;23859;50.672;7.164;2023-03-31T03:34:47;95137.53;;;12.80;90.63
38054;BME280;23859;50.672;7.164;2023-03-31T03:37:13;95133.63;;;12.73;90.76
38054;BME280;23859;50.672;7.164;2023-03-31T03:39:39;95121.63;;;12.75;89.70
38054;BME280;23859;50.672;7.164;2023-03-31T03:42:05;95123.84;;;12.68;90.64
38054;BME280;23859;50.672;7.164;2023-03-31T03:44:31;95116.94;;;12.67;90.46
38054;BME280;23859;50.672;7.164;2023-03-31T03:46:57;95067.13;;;12.26;89.77
38054;BME280;23859;50.672;7.164;2023-03-31T03:49:23;95119.75;;;12.76;88.85
38054;BME280;23859;50.672;7.164;2023-03-31T03:51:50;95116.59;;;12.74;88.90
38054;BME280;23859;50.672;7.164;2023-03-31T03:54:16;95116.00;;;12.77;88.87
38054;BME280;23859;50.672;7.164;2023-03-31T03:56:42;95106.06;;;12.64;88.46
38054;BME280;23859;50.672;7.164;2023-03-31T03:59:09;95108.09;;;12.72;87.81
38054;BME280;23859;50.672;7.164;2023-03-31T04:01:35;95103.91;;;12.66;87.38
38054;BME280;23859;50.672;7.164;2023-03-31T04:04:02;95100.03;;;12.77;86.24
38054;BME280;23859;50.672;7.164;2023-03-31T04:06:29;95091.81;;;12.73;85.78
38054;BME280;23859;50.672;7.164;2023-03-31T04:08:55;95083.50;;;12.80;85.72
38054;BME280;23859;50.672;7.164;2023-03-31T04:11:21;95080.38;;;12.73;85.30
38054;BME280;23859;50.672;7.164;2023-03-31T04:13:47;95074.53;;;12.71;85.07
38054;BME280;23859;50.672;7.164;2023-03-31T04:16:13;95065.00;;;12.70;84.93
38054;BME280;23859;50.672;7.164;2023-03-31T04:18:39;95073.28;;;12.87;84.61
38054;BME280;23859;50.672;7.164;2023-03-31T04:21:09;95067.06;;;12.73;86.07
38054;BME280;23859;50.672;7.164;2023-03-31T04:23:38;95050.84;;;12.51;88.21
38054;BME280;23859;50.672;7.164;2023-03-31T04:26:12;95034.38;;;12.26;90.84
38054;BME280;23859;50.672;7.164;2023-03-31T04:28:39;95012.56;;;12.05;93.56
38054;BME280;23859;50.672;7.164;2023-03-31T04:31:09;94996.25;;;11.89;94.59
38054;BME280;23859;50.672;7.164;2023-03-31T04:33:35;94985.81;;;11.74;96.19
38054;BME280;23859;50.672;7.164;2023-03-31T04:36:05;94985.63;;;11.65;97.43
38054;BME280;23859;50.672;7.164;2023-03-31T04:38:44;94983.91;;;11.51;99.22
38054;BME280;23859;50.672;7.164;2023-03-31T04:41:12;94941.13;;;11.47;99.61
38054;BME280;23859;50.672;7.164;2023-03-31T04:43:39;94924.41;;;11.47;100.00
38054;BME280;23859;50.672;7.164;2023-03-31T04:46:05;94906.28;;;11.49;100.00
38054;BME280;23859;50.672;7.164;2023-03-31T04:48:31;94890.25;;;11.59;99.96
38054;BME280;23859;50.672;7.164;2023-03-31T04:50:57;94860.84;;;11.50;100.00
38054;BME280;23859;50.672;7.164;2023-03-31T04:53:23;94856.94;;;11.66;99.54
38054;BME280;23859;50.672;7.164;2023-03-31T04:55:51;94852.38;;;11.72;98.41
38054;BME280;23859;50.672;7.164;2023-03-31T04:58:17;94841.94;;;11.75;98.48
38054;BME280;23859;50.672;7.164;2023-03-31T05:00:43;94831.53;;;11.79;98.22
38054;BME280;23859;50.672;7.164;2023-03-31T05:03:09;94828.06;;;11.78;98.10
38054;BME280;23859;50.672;7.164;2023-03-31T05:05:35;94818.41;;;11.87;97.76
38054;BME280;23859;50.672;7.164;2023-03-31T05:08:02;94812.06;;;11.83;98.25
38054;BME280;23859;50.672;7.164;2023-03-31T05:10:29;94806.94;;;11.87;97.27
38054;BME280;23859;50.672;7.164;2023-03-31T05:12:55;94803.66;;;11.95;95.12
38054;BME280;23859;50.672;7.164;2023-03-31T05:15:21;94789.34;;;12.09;93.65
38054;BME280;23859;50.672;7.164;2023-03-31T05:17:49;94781.28;;;12.14;92.99
38054;BME280;23859;50.672;7.164;2023-03-31T05:20:17;94787.00;;;12.21;91.36
38054;BME280;23859;50.672;7.164;2023-03-31T05:22:45;94790.69;;;12.25;90.13
38054;BME280;23859;50.672;7.164;2023-03-31T05:25:12;94790.53;;;12.35;88.47
38054;BME280;23859;50.672;7.164;2023-03-31T05:27:46;94799.28;;;12.35;87.38
38054;BME280;23859;50.672;7.164;2023-03-31T05:30:16;94804.16;;;12.47;86.85
38054;BME280;23859;50.672;7.164;2023-03-31T05:32:43;94791.06;;;12.50;85.55
38054;BME280;23859;50.672;7.164;2023-03-31T05:35:09;94781.47;;;12.49;85.62
38054;BME280;23859;50.672;7.164;2023-03-31T05:37:36;94795.59;;;12.50;83.94
38054;BME280;23859;50.672;7.164;2023-03-31T05:40:02;94777.91;;;12.40;84.88
38054;BME280;23859;50.672;7.164;2023-03-31T05:42:29;94765.03;;;12.47;84.95
38054;BME280;23859;50.672;7.164;2023-03-31T05:44:56;94754.00;;;12.22;88.14
38054;BME280;23859;50.672;7.164;2023-03-31T05:47:22;94744.28;;;11.81;93.30
38054;BME280;23859;50.672;7.164;2023-03-31T05:49:48;94712.38;;;11.44;96.14
38054;BME280;23859;50.672;7.164;2023-03-31T05:52:14;94697.66;;;11.33;96.43
38054;BME280;23859;50.672;7.164;2023-03-31T05:54:41;94679.44;;;11.27;95.31
38054;BME280;23859;50.672;7.164;2023-03-31T05:57:07;94497.19;;;11.12;97.69
38054;BME280;23859;50.672;7.164;2023-03-31T05:59:34;94497.44;;;11.29;96.23
38054;BME280;23859;50.672;7.164;2023-03-31T06:02:01;94471.66;;;11.29;95.31
38054;BME280;23859;50.672;7.164;2023-03-31T06:04:27;94490.56;;;11.41;94.11
38054;BME280;23859;50.672;7.164;2023-03-31T06:06:54;94486.53;;;11.44;94.14
38054;BME280;23859;50.672;7.164;2023-03-31T06:09:20;94482.81;;;11.45;93.97
38054;BME280;23859;50.672;7.164;2023-03-31T06:11:46;94475.38;;;11.60;92.86
38054;BME280;23859;50.672;7.164;2023-03-31T06:14:13;94461.44;;;11.50;93.12
38054;BME280;23859;50.672;7.164;2023-03-31T06:16:39;94454.00;;;11.52;93.49
38054;BME280;23859;50.672;7.164;2023-03-31T06:19:05;94456.94;;;11.50;94.09
38054;BME280;23859;50.672;7.164;2023-03-31T06:21:32;94450.31;;;11.48;95.46
38054;BME280;23859;50.672;7.164;2023-03-31T06:23:58;94443.28;;;11.57;95.19
38054;BME280;23859;50.672;7.164;2023-03-31T06:26:25;94440.63;;;11.57;96.06
38054;BME280;23859;50.672;7.164;2023-03-31T06:28:52;94441.81;;;11.78;94.93
38054;BME280;23859;50.672;7.164;2023-03-31T06:31:22;94448.09;;;11.82;95.45
38054;BME280;23859;50.672;7.164;2023-03-31T06:33:48;94436.19;;;11.93;94.44
38054;BME280;23859;50.672;7.164;2023-03-31T06:36:17;94427.63;;;11.96;93.82
38054;BME280;23859;50.672;7.164;2023-03-31T06:38:44;94425.44;;;11.84;94.81
38054;BME280;23859;50.672;7.164;2023-03-31T06:41:12;94423.28;;;11.86;94.67
38054;BME280;23859;50.672;7.164;2023-03-31T06:43:39;94421.91;;;11.89;94.94
38054;BME280;23859;50.672;7.164;2023-03-31T06:46:05;94416.69;;;11.84;94.15
38054;BME280;23859;50.672;7.164;2023-03-31T06:48:31;94406.53;;;11.99;93.83
38054;BME280;23859;50.672;7.164;2023-03-31T06:51:02;94401.41;;;12.02;94.51
38054;BME280;23859;50.672;7.164;2023-03-31T06:53:29;94388.31;;;11.93;96.05
38054;BME280;23859;50.672;7.164;2023-03-31T06:55:55;94389.38;;;12.05;96.31
38054;BME280;23859;50.672;7.164;2023-03-31T06:58:21;94379.38;;;11.89;98.65
38054;BME280;23859;50.672;7.164;2023-03-31T07:00:48;94383.03;;;11.79;100.00
38054;BME280;23859;50.672;7.164;2023-03-31T07:03:15;94375.03;;;11.93;99.97
38054;BME280;23859;50.672;7.164;2023-03-31T07:05:51;94363.63;;;11.92;100.00
38054;BME280;23859;50.672;7.164;2023-03-31T07:08:18;94366.53;;;11.91;100.00
38054;BME280;23859;50.672;7.164;2023-03-31T07:10:44;94373.53;;;12.35;100.00
38054;BME280;23859;50.672;7.164;2023-03-31T07:13:15;94376.81;;;12.54;98.90
38054;BME280;23859;50.672;7.164;2023-03-31T07:15:41;94378.50;;;12.72;97.25
38054;BME280;23859;50.672;7.164;2023-03-31T07:18:08;94379.34;;;13.03;95.80
38054;BME280;23859;50.672;7.164;2023-03-31T07:20:34;94380.47;;;13.40;92.72
38054;BME280;23859;50.672;7.164;2023-03-31T07:23:03;94352.59;;;13.16;91.60
38054;BME280;23859;50.672;7.164;2023-03-31T07:25:29;94348.38;;;13.15;91.61
38054;BME280;23859;50.672;7.164;2023-03-31T07:27:56;94367.63;;;13.42;90.01
38054;BME280;23859;50.672;7.164;2023-03-31T07:30:22;94367.41;;;13.69;87.52
38054;BME280;23859;50.672;7.164;2023-03-31T07:32:50;94373.25;;;13.80;88.32
38054;BME280;23859;50.672;7.164;2023-03-31T07:35:17;94357.53;;;13.78;85.71
38054;BME280;23859;50.672;7.164;2023-03-31T07:37:46;94351.28;;;13.83;84.25
38054;BME280;23859;50.672;7.164;2023-03-31T07:40:18;94351.47;;;14.03;81.57
38054;BME280;23859;50.672;7.164;2023-03-31T07:42:45;94351.34;;;14.50;80.74
38054;BME280;23859;50.672;7.164;2023-03-31T07:45:15;94338.78;;;14.34;80.54
38054;BME280;23859;50.672;7.164;2023-03-31T07:47:42;94348.53;;;14.47;80.63
38054;BME280;23859;50.672;7.164;2023-03-31T07:50:09;94321.34;;;14.11;81.93
38054;BME280;23859;50.672;7.164;2023-03-31T07:52:35;94317.44;;;14.17;82.10
38054;BME280;23859;50.672;7.164;2023-03-31T07:55:02;94328.75;;;14.31;81.58
38054;BME280;23859;50.672;7.164;2023-03-31T07:57:28;94324.53;;;14.30;81.43
38054;BME280;23859;50.672;7.164;2023-03-31T07:59:55;94300.94;;;14.49;82.02
38054;BME280;23859;50.672;7.164;2023-03-31T08:02:21;94287.69;;;14.77;79.27
38054;BME280;23859;50.672;7.164;2023-03-31T08:04:47;94284.56;;;15.21;77.63
38054;BME280;23859;50.672;7.164;2023-03-31T08:07:14;94267.31;;;15.10;77.77
38054;BME280;23859;50.672;7.164;2023-03-31T08:09:43;94234.56;;;15.13;78.19
38054;BME280;23859;50.672;7.164;2023-03-31T08:12:10;94224.06;;;15.08;77.56
38054;BME280;23859;50.672;7.164;2023-03-31T08:14:36;94226.56;;;15.13;77.97
38054;BME280;23859;50.672;7.164;2023-03-31T08:17:02;94202.81;;;15.12;78.60
38054;BME280;23859;50.672;7.164;2023-03-31T08:19:29;94200.97;;;15.04;78.74
38054;BME280;23859;50.672;7.164;2023-03-31T08:21:55;94189.88;;;14.93;77.71
38054;BME280;23859;50.672;7.164;2023-03-31T08:24:21;94122.69;;;14.46;77.26
38054;BME280;23859;50.672;7.164;2023-03-31T08:26:47;94206.25;;;14.83;78.33
38054;BME280;23859;50.672;7.164;2023-03-31T08:29:14;94170.38;;;14.93;78.38
38054;BME280;23859;50.672;7.164;2023-03-31T08:31:40;94153.94;;;15.11;77.35
38054;BME280;23859;50.672;7.164;2023-03-31T08:34:06;94133.13;;;15.25;76.60
38054;BME280;23859;50.672;7.164;2023-03-31T08:36:33;94086.38;;;15.31;75.72
38054;BME280;23859;50.672;7.164;2023-03-31T08:38:59;94048.56;;;15.12;74.45
38054;BME280;23859;50.672;7.164;2023-03-31T08:44:12;93937.19;;;15.04;76.09
38054;BME280;23859;50.672;7.164;2023-03-31T08:46:40;93844.56;;;15.20;75.68
38054;BME280;23859;50.672;7.164;2023-03-31T08:49:08;93790.91;;;15.25;75.77
38054;BME280;23859;50.672;7.164;2023-03-31T08:52:01;59640.34;;;15.14;76.20
38054;BME280;23859;50.672;7.164;2023-03-31T08:54:42;59654.53;;;15.31;75.82
38054;BME280;23859;50.672;7.164;2023-03-31T08:57:16;59673.81;;;15.50;75.14
38054;BME280;23859;50.672;7.164;2023-03-31T08:59:44;59684.50;;;15.64;74.28
38054;BME280;23859;50.672;7.164;2023-03-31T09:05:53;59775.53;;;16.55;70.34
38054;BME280;23859;50.672;7.164;2023-03-31T09:08:34;59864.03;;;17.38;64.61
38054;BME280;23859;50.672;7.164;2023-03-31T09:14:17;60075.59;;;19.53;57.53
38054;BME280;23859;50.672;7.164;2023-03-31T09:16:58;60001.16;;;18.78;58.65
38054;BME280;23859;50.672;7.164;2023-03-31T09:19:36;60002.28;;;18.85;59.43
38054;BME280;23859;50.672;7.164;2023-03-31T09:22:09;59966.44;;;18.44;59.40
38054;BME280;23859;50.672;7.164;2023-03-31T09:24:46;59949.59;;;18.27;59.93
38054;BME280;23859;50.672;7.164;2023-03-31T09:27:14;59895.06;;;17.72;61.91
38054;BME280;23859;50.672;7.164;2023-03-31T09:32:20;59870.66;;;17.42;63.81
38054;BME280;23859;50.672;7.164;2023-03-31T09:34:52;59796.63;;;16.79;65.71
38054;BME280;23859;50.672;7.164;2023-03-31T09:37:24;59802.13;;;16.76;67.39
38054;BME280;23859;50.672;7.164;2023-03-31T09:39:51;59830.84;;;17.05;65.96
38054;BME280;23859;50.672;7.164;2023-03-31T09:42:18;59824.72;;;17.02;66.21
38054;BME280;23859;50.672;7.164;2023-03-31T09:44:45;59795.63;;;16.78;66.36
38054;BME280;23859;50.672;7.164;2023-03-31T09:47:32;59761.34;;;16.38;68.47
38054;BME280;23859;50.672;7.164;2023-03-31T09:50:04;59663.09;;;15.37;68.88
38054;BME280;23859;50.672;7.164;2023-03-31T09:52:40;59651.06;;;15.28;75.26
38054;BME280;23859;50.672;7.164;2023-03-31T09:55:38;59613.00;;;14.89;75.53
38054;BME280;23859;50.672;7.164;2023-03-31T09:58:11;59606.75;;;14.80;73.39
38054;BME280;23859;50.672;7.164;2023-03-31T10:00:40;59603.78;;;14.77;72.06
38054;BME280;23859;50.672;7.164;2023-03-31T10:03:11;59608.72;;;14.82;70.92
38054;BME280;23859;50.672;7.164;2023-03-31T10:05:48;59626.50;;;15.00;69.95
38054;BME280;23859;50.672;7.164;2023-03-31T10:08:39;59644.28;;;15.26;68.48
38054;BME280;23859;50.672;7.164;2023-03-31T10:11:09;59653.22;;;15.27;67.74
38054;BME280;23859;50.672;7.164;2023-03-31T10:13:45;59675.59;;;15.55;66.31
38054;BME280;23859;50.672;7.164;2023-03-31T10:16:14;59660.00;;;15.29;64.40
38054;BME280;23859;50.672;7.164;2023-03-31T10:18:45;59780.09;;;16.65;64.59
38054;BME280;23859;50.672;7.164;2023-03-31T10:21:23;59802.06;;;16.84;61.61
38054;BME280;23859;50.672;7.164;2023-03-31T10:23:50;59813.69;;;16.85;61.62
38054;BME280;23859;50.672;7.164;2023-03-31T10:26:23;59794.03;;;16.71;62.85
38054;BME280;23859;50.672;7.164;2023-03-31T10:28:51;59820.44;;;16.95;62.53
38054;BME280;23859;50.672;7.164;2023-03-31T10:31:24;59886.50;;;17.58;59.39
38054;BME280;23859;50.672;7.164;2023-03-31T10:33:51;59916.88;;;17.94;61.11
38054;BME280;23859;50.672;7.164;2023-03-31T10:36:26;59996.50;;;18.76;55.39
38054;BME280;23859;50.672;7.164;2023-03-31T10:38:54;60049.66;;;19.22;54.53
38054;BME280;23859;50.672;7.164;2023-03-31T10:41:26;60026.78;;;19.07;55.57
38054;BME280;23859;50.672;7.164;2023-03-31T10:43:57;59998.97;;;18.79;54.86
38054;BME280;23859;50.672;7.164;2023-03-31T10:46:46;59884.09;;;17.69;60.39
38054;BME280;23859;50.672;7.164;2023-03-31T10:51:51;59759.19;;;16.39;70.97
38054;BME280;23859;50.672;7.164;2023-03-31T10:54:17;59770.75;;;16.48;68.97
38054;BME280;23859;50.672;7.164;2023-03-31T10:56:54;59858.09;;;17.33;70.33
38054;BME280;23859;50.672;7.164;2023-03-31T10:59:48;59936.38;;;18.11;66.52
38054;BME280;23859;50.672;7.164;2023-03-31T11:19:05;60061.41;;;19.36;54.55
38054;BME280;23859;50.672;7.164;2023-03-31T11:24:13;60004.81;;;18.79;55.18
38054;BME280;23859;50.672;7.164;2023-03-31T11:29:48;59930.91;;;18.05;55.78
38054;BME280;23859;50.672;7.164;2023-03-31T11:32:39;59929.69;;;18.15;56.07
38054;BME280;23859;50.672;7.164;2023-03-31T11:37:55;59965.63;;;18.40;56.56
38054;BME280;23859;50.672;7.164;2023-03-31T11:43:41;59884.66;;;17.62;60.45
38054;BME280;23859;50.672;7.164;2023-03-31T11:46:31;59862.38;;;17.39;61.08
38054;BME280;23859;50.672;7.164;2023-03-31T11:49:08;59862.72;;;17.35;61.69
38054;BME280;23859;50.672;7.164;2023-03-31T11:51:57;59829.66;;;17.07;61.04
38054;BME280;23859;50.672;7.164;2023-03-31T11:54:36;59823.72;;;17.01;60.54
38054;BME280;23859;50.672;7.164;2023-03-31T11:57:21;59755.72;;;16.35;62.55
38054;BME280;23859;50.672;7.164;2023-03-31T11:59:56;59730.66;;;16.07;68.51
38054;BME280;23859;50.672;7.164;2023-03-31T12:02:42;59605.44;;;14.76;71.53
38054;BME280;23859;50.672;7.164;2023-03-31T12:05:11;59500.41;;;13.76;83.58
38054;BME280;23859;50.672;7.164;2023-03-31T12:10:52;59425.91;;;13.01;89.69
38054;BME280;23859;50.672;7.164;2023-03-31T12:13:37;59393.53;;;12.66;91.17
38054;BME280;23859;50.672;7.164;2023-03-31T12:16:25;59360.34;;;12.35;97.21
38054;BME280;23859;50.672;7.164;2023-03-31T12:19:05;59347.53;;;12.22;98.27
38054;BME280;23859;50.672;7.164;2023-03-31T12:21:35;59362.16;;;12.32;95.13
38054;BME280;23859;50.672;7.164;2023-03-31T12:24:03;59349.00;;;12.24;96.42
38054;BME280;23859;50.672;7.164;2023-03-31T12:26:40;59387.94;;;12.63;93.72
38054;BME280;23859;50.672;7.164;2023-03-31T12:29:33;59423.09;;;13.04;94.38
38054;BME280;23859;50.672;7.164;2023-03-31T12:32:11;59499.09;;;13.72;90.61
38054;BME280;23859;50.672;7.164;2023-03-31T12:34:54;59552.59;;;14.23;83.55
38054;BME280;23859;50.672;7.164;2023-03-31T12:40:45;59594.22;;;14.70;82.46
38054;BME280;23859;50.672;7.164;2023-03-31T12:56:26;59688.31;;;15.62;80.37
38054;BME280;23859;50.672;7.164;2023-03-31T12:58:52;59663.06;;;15.45;78.11
38054;BME280;23859;50.672;7.164;2023-03-31T13:01:27;59708.91;;;15.86;77.19
38054;BME280;23859;50.672;7.164;2023-03-31T13:04:20;59724.56;;;16.04;76.78
38054;BME280;23859;50.672;7.164;2023-03-31T13:06:52;59764.47;;;16.47;72.44
38054;BME280;23859;50.672;7.164;2023-03-31T13:09:38;59789.38;;;16.69;72.40
38054;BME280;23859;50.672;7.164;2023-03-31T13:12:19;59786.94;;;16.59;72.10
38054;BME280;23859;50.672;7.164;2023-03-31T13:14:48;59726.03;;;16.05;75.54
38054;BME280;23859;50.672;7.164;2023-03-31T13:19:53;59690.78;;;15.65;78.58
38054;BME280;23859;50.672;7.164;2023-03-31T13:22:36;59633.88;;;15.16;74.15
38054;BME280;23859;50.672;7.164;2023-03-31T13:25:38;59570.00;;;14.46;77.28
38054;BME280;23859;50.672;7.164;2023-03-31T13:28:25;59538.25;;;14.17;82.55
38054;BME280;23859;50.672;7.164;2023-03-31T13:31:01;59535.66;;;14.09;84.31
38054;BME280;23859;50.672;7.164;2023-03-31T13:36:09;59600.81;;;14.74;80.23
38054;BME280;23859;50.672;7.164;2023-03-31T13:41:43;59655.50;;;15.32;76.63
38054;BME280;23859;50.672;7.164;2023-03-31T13:47:43;59701.66;;;15.76;70.10
38054;BME280;23859;50.672;7.164;2023-03-31T14:02:10;59801.56;;;16.84;68.38
38054;BME280;23859;50.672;7.164;2023-03-31T14:04:50;59754.56;;;16.37;64.72
38054;BME280;23859;50.672;7.164;2023-03-31T14:07:33;59738.88;;;16.18;66.66
38054;BME280;23859;50.672;7.164;2023-03-31T14:10:02;59748.47;;;16.25;67.46
38054;BME280;23859;50.672;7.164;2023-03-31T14:12:36;59722.06;;;16.01;69.05
38054;BME280;23859;50.672;7.164;2023-03-31T14:15:04;59716.94;;;15.99;66.91
38054;BME280;23859;50.672;7.164;2023-03-31T14:17:38;59698.50;;;15.75;69.37
38054;BME280;23859;50.672;7.164;2023-03-31T14:20:40;59682.38;;;15.56;68.04
38054;BME280;23859;50.672;7.164;2023-03-31T14:23:25;59662.41;;;15.39;68.30
38054;BME280;23859;50.672;7.164;2023-03-31T14:26:09;59706.63;;;15.81;66.80
38054;BME280;23859;50.672;7.164;2023-03-31T14:31:21;59694.41;;;15.66;66.02
38054;BME280;23859;50.672;7.164;2023-03-31T14:34:07;59702.34;;;15.74;66.01
38054;BME280;23859;50.672;7.164;2023-03-31T14:37:00;59708.22;;;15.88;64.91
38054;BME280;23859;50.672;7.164;2023-03-31T14:39:50;59715.16;;;15.95;63.48
38054;BME280;23859;50.672;7.164;2023-03-31T14:42:18;59721.63;;;15.93;65.13
38054;BME280;23859;50.672;7.164;2023-03-31T14:44:45;59706.25;;;15.86;64.18
38054;BME280;23859;50.672;7.164;2023-03-31T14:47:21;59729.16;;;16.06;61.63
38054;BME280;23859;50.672;7.164;2023-03-31T14:49:57;59722.88;;;16.05;61.65
38054;BME280;23859;50.672;7.164;2023-03-31T14:52:23;59741.84;;;16.21;60.94
38054;BME280;23859;50.672;7.164;2023-03-31T14:54:52;59725.53;;;16.05;61.13
38054;BME280;23859;50.672;7.164;2023-03-31T14:57:23;59722.75;;;15.99;62.03
38054;BME280;23859;50.672;7.164;2023-03-31T14:59:53;59721.75;;;15.98;61.85
38054;BME280;23859;50.672;7.164;2023-03-31T15:02:30;59714.66;;;15.94;63.52
38054;BME280;23859;50.672;7.164;2023-03-31T15:04:57;59685.34;;;15.59;65.23
38054;BME280;23859;50.672;7.164;2023-03-31T15:07:23;59686.81;;;15.61;64.08
38054;BME280;23859;50.672;7.164;2023-03-31T15:09:50;59687.16;;;15.64;65.86
38054;BME280;23859;50.672;7.164;2023-03-31T15:12:20;59695.41;;;15.67;64.92
38054;BME280;23859;50.672;7.164;2023-03-31T15:14:50;59718.16;;;15.90;65.38
38054;BME280;23859;50.672;7.164;2023-03-31T15:17:27;59738.56;;;16.15;65.25
38054;BME280;23859;50.672;7.164;2023-03-31T15:19:55;59726.03;;;16.05;66.37
38054;BME280;23859;50.672;7.164;2023-03-31T15:22:24;59734.97;;;16.06;65.88